createdAt,value
2022-12-18T00:01:32.131Z,92.50
2022-12-18T00:04:06.786Z,92.50
2022-12-18T00:06:36.625Z,92.20
2022-12-18T00:09:05.478Z,92.00
2022-12-18T00:11:33.364Z,92.00
2022-12-18T00:14:02.058Z,91.60
2022-12-18T00:16:31.010Z,91.30
2022-12-18T00:19:01.489Z,90.80
2022-12-18T00:21:30.452Z,90.70
2022-12-18T00:23:58.638Z,90.60
2022-12-18T00:26:28.321Z,90.60
2022-12-18T00:28:57.638Z,90.20
2022-12-18T00:31:27.016Z,90.10
2022-12-18T00:33:56.519Z,89.70
2022-12-18T00:36:28.031Z,90.00
2022-12-18T00:38:57.000Z,90.30
2022-12-18T00:41:39.836Z,90.60
2022-12-18T00:44:09.435Z,90.20
2022-12-18T00:46:37.325Z,89.70
2022-12-18T00:49:05.321Z,89.70
2022-12-18T00:51:34.540Z,89.90
2022-12-18T00:54:02.361Z,89.50
2022-12-18T00:56:30.217Z,90.10
2022-12-18T00:58:58.055Z,90.00
2022-12-18T01:01:26.075Z,90.70
2022-12-18T01:03:54.023Z,90.60
2022-12-18T01:06:21.898Z,90.10
2022-12-18T01:08:51.068Z,89.60
2022-12-18T01:11:21.257Z,89.60
2022-12-18T01:13:49.480Z,88.80
2022-12-18T01:16:18.800Z,88.20
2022-12-18T01:18:47.091Z,88.40
2022-12-18T01:21:17.930Z,88.40
2022-12-18T01:23:45.797Z,88.80
2022-12-18T01:26:16.495Z,89.50
2022-12-18T01:28:45.720Z,89.50
2022-12-18T01:31:15.930Z,90.10
2022-12-18T01:33:43.911Z,90.10
2022-12-18T01:36:17.664Z,89.30
2022-12-18T01:38:45.607Z,89.20
2022-12-18T01:41:16.225Z,88.90
2022-12-18T01:43:50.487Z,89.20
2022-12-18T01:46:20.167Z,89.30
2022-12-18T01:48:50.142Z,90.20
2022-12-18T01:51:18.992Z,90.00
2022-12-18T01:53:48.213Z,90.30
2022-12-18T01:56:20.342Z,90.80
2022-12-18T01:58:55.281Z,90.70
2022-12-18T02:01:25.453Z,91.10
2022-12-18T02:03:54.219Z,91.10
2022-12-18T02:06:28.845Z,90.60
2022-12-18T02:09:09.817Z,90.10
2022-12-18T02:11:51.395Z,91.00
2022-12-18T02:14:30.224Z,91.50
2022-12-18T02:17:04.927Z,91.80
2022-12-18T02:19:45.387Z,91.70
2022-12-18T02:22:28.352Z,91.20
2022-12-18T02:25:06.842Z,90.20
2022-12-18T02:27:39.010Z,89.50
2022-12-18T02:30:08.949Z,88.80
2022-12-18T02:32:41.642Z,88.70
2022-12-18T02:35:13.219Z,89.20
2022-12-18T02:37:42.535Z,89.70
2022-12-18T02:40:12.610Z,89.90
2022-12-18T02:42:41.756Z,90.00
2022-12-18T02:45:10.293Z,90.60
2022-12-18T02:47:42.481Z,90.70
2022-12-18T02:50:18.862Z,90.80
2022-12-18T02:52:54.894Z,90.60
2022-12-18T02:55:33.655Z,90.40
2022-12-18T02:58:07.609Z,90.10
2022-12-18T03:00:39.698Z,89.90
2022-12-18T03:03:12.309Z,89.70
2022-12-18T03:05:45.261Z,90.20
2022-12-18T03:08:17.587Z,90.00
2022-12-18T03:10:51.900Z,89.70
2022-12-18T03:13:25.560Z,89.40
2022-12-18T03:15:57.054Z,89.70
2022-12-18T03:18:28.573Z,89.50
2022-12-18T03:21:00.410Z,89.70
2022-12-18T03:23:32.564Z,90.70
2022-12-18T03:26:07.637Z,90.90
2022-12-18T03:28:41.569Z,90.60
2022-12-18T03:31:13.322Z,89.90
2022-12-18T03:33:46.316Z,89.60
2022-12-18T03:36:14.266Z,89.20
2022-12-18T03:38:42.142Z,89.40
2022-12-18T03:41:18.280Z,89.20
2022-12-18T03:43:54.089Z,89.30
2022-12-18T03:46:29.100Z,89.90
2022-12-18T03:49:04.242Z,90.20
2022-12-18T03:51:42.755Z,89.50
2022-12-18T03:54:11.942Z,90.40
2022-12-18T03:56:44.041Z,90.00
2022-12-18T03:59:14.963Z,89.10
2022-12-18T04:01:48.236Z,89.10
2022-12-18T04:04:18.291Z,89.10
2022-12-18T04:06:48.651Z,88.60
2022-12-18T04:09:16.810Z,88.70
2022-12-18T04:11:45.363Z,89.30
2022-12-18T04:14:17.930Z,89.30
2022-12-18T04:16:46.442Z,89.40
2022-12-18T04:19:14.473Z,90.10
2022-12-18T04:21:42.319Z,91.70
2022-12-18T04:24:10.371Z,91.60
2022-12-18T04:26:39.271Z,91.30
2022-12-18T04:29:07.103Z,91.20
2022-12-18T04:31:36.428Z,91.30
2022-12-18T04:34:04.451Z,91.20
2022-12-18T04:36:32.282Z,90.40
2022-12-18T04:39:00.462Z,89.70
2022-12-18T04:41:28.302Z,89.20
2022-12-18T04:43:56.107Z,89.60
2022-12-18T04:46:23.986Z,89.50
2022-12-18T04:48:53.182Z,89.90
2022-12-18T04:51:26.152Z,90.70
2022-12-18T04:53:54.412Z,90.50
2022-12-18T04:56:22.522Z,88.70
2022-12-18T04:58:50.726Z,88.80
2022-12-18T05:01:20.354Z,88.70
2022-12-18T05:03:48.493Z,90.20
2022-12-18T05:06:17.716Z,90.80
2022-12-18T05:08:45.571Z,90.10
2022-12-18T05:11:16.554Z,89.80
2022-12-18T05:13:45.301Z,90.90
2022-12-18T05:16:14.355Z,92.50
2022-12-18T05:18:42.684Z,91.50
2022-12-18T05:21:10.615Z,90.40
2022-12-18T05:23:40.197Z,91.10
2022-12-18T05:26:08.953Z,90.00
2022-12-18T05:28:38.135Z,92.00
2022-12-18T05:31:06.912Z,93.70
2022-12-18T05:33:36.438Z,92.70
2022-12-18T05:36:06.183Z,90.80
2022-12-18T05:38:35.990Z,90.70
2022-12-18T05:41:05.998Z,89.20
2022-12-18T05:43:35.542Z,87.60
2022-12-18T05:46:06.777Z,87.10
2022-12-18T05:48:35.157Z,88.00
2022-12-18T05:51:07.951Z,89.40
2022-12-18T05:53:36.850Z,88.70
2022-12-18T05:56:08.489Z,89.20
2022-12-18T05:58:36.404Z,88.50
2022-12-18T06:01:09.971Z,89.80
2022-12-18T06:03:37.908Z,89.90
2022-12-18T06:06:06.226Z,89.80
2022-12-18T06:08:34.013Z,90.90
2022-12-18T06:11:01.858Z,90.10
2022-12-18T06:13:31.019Z,90.00
2022-12-18T06:15:58.841Z,89.90
2022-12-18T06:18:26.717Z,91.10
2022-12-18T06:20:58.132Z,91.80
2022-12-18T06:23:26.272Z,91.00
2022-12-18T06:25:54.712Z,91.20
2022-12-18T06:28:22.973Z,91.20
2022-12-18T06:30:52.109Z,91.40
2022-12-18T06:33:20.003Z,90.90
2022-12-18T06:35:47.825Z,91.80
2022-12-18T06:38:15.790Z,90.80
2022-12-18T06:40:43.542Z,91.30
2022-12-18T06:43:11.318Z,90.10
2022-12-18T06:45:39.186Z,89.60
2022-12-18T06:48:08.496Z,88.90
2022-12-18T06:50:37.898Z,87.90
2022-12-18T06:53:05.661Z,87.80
2022-12-18T06:55:35.255Z,88.30
2022-12-18T06:58:05.315Z,88.70
2022-12-18T07:00:33.086Z,90.30
2022-12-18T07:03:00.937Z,90.90
2022-12-18T07:05:30.164Z,90.90
2022-12-18T07:07:58.134Z,90.70
2022-12-18T07:10:26.248Z,90.40
2022-12-18T07:12:54.183Z,89.40
2022-12-18T07:15:21.985Z,88.60
2022-12-18T07:17:49.786Z,89.40
2022-12-18T07:20:17.804Z,88.90
2022-12-18T07:22:49.734Z,89.70
2022-12-18T07:25:19.837Z,90.90
2022-12-18T07:27:47.657Z,90.60
2022-12-18T07:30:15.598Z,89.70
2022-12-18T07:32:44.499Z,89.00
2022-12-18T07:35:12.281Z,88.90
2022-12-18T07:37:40.075Z,88.80
2022-12-18T07:40:11.097Z,88.20
2022-12-18T07:42:39.013Z,88.40
2022-12-18T07:45:07.861Z,89.00
2022-12-18T07:47:37.644Z,90.10
2022-12-18T07:50:06.837Z,91.40
2022-12-18T07:52:34.705Z,92.30
2022-12-18T07:55:02.517Z,91.00
2022-12-18T07:57:50.043Z,90.00
2022-12-18T08:00:19.226Z,89.40
2022-12-18T08:02:47.250Z,89.50
2022-12-18T08:05:16.779Z,88.70
2022-12-18T08:07:44.622Z,86.60
2022-12-18T08:10:12.419Z,88.50
2022-12-18T08:12:41.557Z,90.80
2022-12-18T08:15:10.013Z,92.10
2022-12-18T08:17:37.819Z,92.20
2022-12-18T08:20:06.270Z,90.70
2022-12-18T08:22:36.277Z,90.60
2022-12-18T08:25:04.655Z,88.50
2022-12-18T08:27:33.210Z,88.20
2022-12-18T08:30:03.954Z,86.30
2022-12-18T08:32:33.752Z,86.20
2022-12-18T08:35:01.652Z,85.40
2022-12-18T08:37:29.522Z,85.70
2022-12-18T08:39:57.311Z,87.30
2022-12-18T08:42:42.679Z,86.70
2022-12-18T08:45:12.573Z,87.70
2022-12-18T08:47:40.353Z,89.10
2022-12-18T08:50:08.778Z,87.90
2022-12-18T08:52:36.579Z,88.00
2022-12-18T08:55:04.554Z,88.50
2022-12-18T08:57:32.428Z,89.40
2022-12-18T09:00:00.277Z,90.40
2022-12-18T09:02:29.489Z,89.60
2022-12-18T09:04:57.902Z,90.50
2022-12-18T09:07:25.942Z,90.50
2022-12-18T09:09:53.740Z,90.70
2022-12-18T09:12:21.546Z,92.00
2022-12-18T09:14:49.327Z,92.40
2022-12-18T09:17:17.264Z,92.40
2022-12-18T09:19:46.462Z,91.10
2022-12-18T09:22:14.270Z,90.10
2022-12-18T09:24:42.051Z,88.10
2022-12-18T09:27:09.958Z,89.10
2022-12-18T09:29:37.888Z,89.40
2022-12-18T09:32:06.350Z,90.00
2022-12-18T09:34:34.454Z,90.30
2022-12-18T09:37:03.645Z,90.80
2022-12-18T09:39:31.527Z,90.60
2022-12-18T09:42:00.568Z,88.10
2022-12-18T09:44:31.743Z,88.10
2022-12-18T09:47:10.412Z,88.10
2022-12-18T09:49:44.026Z,88.70
2022-12-18T09:52:17.939Z,88.50
2022-12-18T09:54:50.649Z,87.60
2022-12-18T09:57:22.183Z,88.50
2022-12-18T09:59:55.090Z,89.80
2022-12-18T10:02:25.570Z,88.80
2022-12-18T10:05:03.934Z,89.00
2022-12-18T10:07:41.942Z,89.00
2022-12-18T10:10:19.391Z,89.30
2022-12-18T10:13:04.117Z,87.70
2022-12-18T10:15:38.276Z,89.30
2022-12-18T10:18:22.274Z,88.40
2022-12-18T10:20:53.744Z,89.60
2022-12-18T10:23:28.441Z,87.80
2022-12-18T10:26:02.428Z,89.40
2022-12-18T10:28:32.614Z,89.00
2022-12-18T10:31:01.329Z,90.20
2022-12-18T10:33:32.802Z,90.30
2022-12-18T10:36:01.184Z,89.20
2022-12-18T10:38:31.759Z,89.90
2022-12-18T10:41:01.164Z,88.80
2022-12-18T10:43:31.107Z,89.90
2022-12-18T10:46:15.434Z,86.90
2022-12-18T10:48:52.416Z,89.20
2022-12-18T10:51:25.853Z,88.40
2022-12-18T10:53:58.070Z,91.20
2022-12-18T10:56:29.052Z,85.30
2022-12-18T10:59:03.344Z,86.00
2022-12-18T11:01:48.436Z,84.00
2022-12-18T11:04:20.834Z,85.40
2022-12-18T11:06:57.509Z,86.30
2022-12-18T11:09:28.162Z,85.80
2022-12-18T11:11:57.450Z,87.50
2022-12-18T11:14:27.795Z,88.10
2022-12-18T11:17:24.407Z,83.80
2022-12-18T11:19:45.300Z,86.60
2022-12-18T11:22:23.037Z,84.30
2022-12-18T11:25:30.037Z,84.70
2022-12-18T11:27:50.959Z,86.60
2022-12-18T11:30:24.611Z,85.20
2022-12-18T11:32:54.289Z,84.20
2022-12-18T11:35:27.011Z,85.50
2022-12-18T11:37:59.784Z,85.50
2022-12-18T11:40:40.729Z,83.20
2022-12-18T11:43:12.813Z,85.50
2022-12-18T11:45:47.766Z,85.40
2022-12-18T11:48:20.137Z,84.80
2022-12-18T11:50:52.990Z,83.40
2022-12-18T11:53:21.907Z,82.60
2022-12-18T11:56:06.064Z,79.70
2022-12-18T11:58:49.653Z,80.80
2022-12-18T12:01:36.507Z,81.80
2022-12-18T12:04:40.227Z,82.10
2022-12-18T12:07:22.078Z,79.10
2022-12-18T12:09:57.075Z,77.50
2022-12-18T12:12:48.772Z,77.30
2022-12-18T12:15:29.087Z,77.60
2022-12-18T12:18:08.185Z,75.40
2022-12-18T12:20:49.549Z,75.20
2022-12-18T12:23:27.869Z,72.90
2022-12-18T12:26:03.074Z,75.10
2022-12-18T12:28:54.040Z,72.70
2022-12-18T12:31:34.487Z,72.40
2022-12-18T12:34:10.550Z,73.80
2022-12-18T12:36:48.703Z,70.90
2022-12-18T12:39:22.546Z,69.20
2022-12-18T12:42:07.937Z,70.20
2022-12-18T12:44:44.213Z,69.80
2022-12-18T12:47:18.382Z,70.00
2022-12-18T12:49:48.780Z,69.70
2022-12-18T12:52:27.296Z,69.40
2022-12-18T12:54:56.002Z,68.30
2022-12-18T12:57:26.775Z,67.30
2022-12-18T13:00:02.719Z,67.00
2022-12-18T13:02:35.535Z,65.70
2022-12-18T13:05:13.941Z,66.70
2022-12-18T13:07:48.399Z,67.90
2022-12-18T13:10:28.651Z,68.00
2022-12-18T13:12:56.997Z,67.30
2022-12-18T13:15:31.281Z,66.50
2022-12-18T13:18:22.267Z,66.80
2022-12-18T13:20:56.480Z,67.40
2022-12-18T13:23:35.956Z,67.20
2022-12-18T13:26:33.012Z,66.40
2022-12-18T13:29:07.198Z,67.20
2022-12-18T13:32:02.411Z,68.30
2022-12-18T13:34:32.760Z,67.10
2022-12-18T13:37:34.528Z,68.40
2022-12-18T13:40:02.438Z,68.40
2022-12-18T13:43:00.731Z,69.00
2022-12-18T13:45:47.547Z,68.20
2022-12-18T13:48:28.021Z,68.50
2022-12-18T13:51:00.659Z,68.70
2022-12-18T13:53:32.453Z,70.20
2022-12-18T13:56:00.807Z,69.70
2022-12-18T13:58:28.747Z,71.70
2022-12-18T14:00:57.688Z,71.70
2022-12-18T14:03:28.686Z,72.90
2022-12-18T14:06:01.813Z,73.10
2022-12-18T14:08:35.932Z,74.20
2022-12-18T14:11:07.702Z,73.10
2022-12-18T14:13:39.382Z,74.00
2022-12-18T14:16:09.823Z,73.90
2022-12-18T14:18:46.872Z,74.40
2022-12-18T14:21:22.716Z,74.90
2022-12-18T14:23:50.692Z,75.80
2022-12-18T14:26:29.239Z,76.10
2022-12-18T14:28:57.411Z,77.50
2022-12-18T14:31:26.904Z,77.70
2022-12-18T14:33:56.916Z,78.60
2022-12-18T14:36:26.384Z,78.80
2022-12-18T14:38:55.623Z,79.10
2022-12-18T14:41:24.732Z,79.40
2022-12-18T14:43:54.805Z,79.40
2022-12-18T14:46:34.631Z,79.40
2022-12-18T14:49:06.249Z,80.70
2022-12-18T14:51:36.076Z,81.50
2022-12-18T14:54:08.847Z,80.70
2022-12-18T14:56:38.561Z,81.10
2022-12-18T14:59:08.546Z,82.50
2022-12-18T15:01:39.180Z,82.40
2022-12-18T15:04:27.490Z,84.20
2022-12-18T15:07:11.641Z,84.00
2022-12-18T15:09:40.328Z,84.80
2022-12-18T15:12:26.769Z,86.50
2022-12-18T15:14:54.594Z,87.10
2022-12-18T15:17:24.779Z,87.40
2022-12-18T15:20:02.112Z,89.00
2022-12-18T15:22:31.636Z,90.30
2022-12-18T15:25:00.775Z,90.70
2022-12-18T15:27:32.348Z,91.10
2022-12-18T15:30:28.647Z,92.20
2022-12-18T15:33:25.665Z,94.30
2022-12-18T15:36:00.094Z,95.30
2022-12-18T15:38:28.346Z,96.10
2022-12-18T15:40:56.813Z,96.90
2022-12-18T15:43:38.717Z,96.70
2022-12-18T15:46:08.597Z,95.60
2022-12-18T15:48:40.864Z,94.30
2022-12-18T15:51:16.737Z,94.60
2022-12-18T15:53:45.397Z,95.40
2022-12-18T15:56:31.716Z,95.90
2022-12-18T15:59:00.004Z,96.00
2022-12-18T16:01:30.829Z,97.00
2022-12-18T16:03:59.393Z,97.80
2022-12-18T16:06:36.515Z,97.90
2022-12-18T16:09:17.221Z,97.90
2022-12-18T16:11:48.392Z,98.30
2022-12-18T16:14:21.204Z,98.50
2022-12-18T16:16:51.061Z,99.20
2022-12-18T16:19:19.456Z,99.30
2022-12-18T16:21:51.018Z,99.00
2022-12-18T16:24:22.740Z,99.20
2022-12-18T16:26:52.313Z,99.10
2022-12-18T16:29:25.472Z,98.60
2022-12-18T16:31:53.987Z,99.50
2022-12-18T16:34:24.947Z,98.80
2022-12-18T16:37:01.692Z,98.50
2022-12-18T16:39:34.122Z,98.40
2022-12-18T16:42:03.369Z,98.90
2022-12-18T16:44:34.283Z,99.30
2022-12-18T16:47:03.168Z,99.20
2022-12-18T16:49:31.625Z,99.00
2022-12-18T16:52:00.793Z,98.60
2022-12-18T16:54:30.384Z,98.10
2022-12-18T16:56:58.542Z,97.90
2022-12-18T16:59:27.286Z,97.90
2022-12-18T17:01:57.411Z,98.50
2022-12-18T17:04:25.447Z,98.30
2022-12-18T17:06:53.846Z,98.00
2022-12-18T17:09:25.857Z,97.10
2022-12-18T17:11:53.793Z,96.80
2022-12-18T17:14:23.936Z,97.10
2022-12-18T17:17:19.196Z,97.30
2022-12-18T17:19:40.160Z,98.10
2022-12-18T17:22:08.160Z,98.30
2022-12-18T17:24:37.451Z,98.00
2022-12-18T17:27:05.518Z,98.00
2022-12-18T17:29:33.338Z,98.10
2022-12-18T17:32:01.187Z,98.30
2022-12-18T17:34:30.692Z,98.40
2022-12-18T17:36:58.988Z,97.50
2022-12-18T17:39:28.639Z,96.90
2022-12-18T17:41:57.885Z,96.90
2022-12-18T17:44:25.777Z,96.90
2022-12-18T17:46:53.741Z,97.20
2022-12-18T17:49:21.628Z,97.60
2022-12-18T17:51:49.662Z,97.90
2022-12-18T17:54:17.467Z,98.00
2022-12-18T17:56:46.134Z,98.30
2022-12-18T17:59:16.002Z,98.10
2022-12-18T18:01:45.189Z,98.10
2022-12-18T18:04:16.499Z,98.30
2022-12-18T18:06:44.409Z,98.10
2022-12-18T18:09:16.290Z,97.60
2022-12-18T18:12:03.009Z,97.40
2022-12-18T18:14:32.984Z,97.30
2022-12-18T18:17:04.885Z,97.90
2022-12-18T18:19:34.159Z,97.80
2022-12-18T18:22:03.127Z,97.50
2022-12-18T18:24:31.914Z,97.10
2022-12-18T18:27:00.512Z,96.60
2022-12-18T18:29:30.258Z,95.80
2022-12-18T18:32:00.160Z,96.40
2022-12-18T18:34:30.614Z,97.30
2022-12-18T18:36:58.471Z,97.70
2022-12-18T18:39:26.765Z,98.10
2022-12-18T18:41:54.905Z,98.70
2022-12-18T18:44:25.752Z,98.90
2022-12-18T18:46:56.060Z,98.80
2022-12-18T18:49:27.461Z,98.70
2022-12-18T18:51:56.218Z,98.60
2022-12-18T18:54:24.348Z,98.40
2022-12-18T18:59:40.132Z,97.40
2022-12-18T19:02:08.195Z,97.60
2022-12-18T19:04:40.902Z,97.80
2022-12-18T19:07:15.513Z,98.10
2022-12-18T19:09:58.000Z,98.20
2022-12-18T19:12:49.007Z,97.20
2022-12-18T19:15:16.979Z,96.90
2022-12-18T19:17:44.846Z,97.20
2022-12-18T19:20:16.715Z,97.80
2022-12-18T19:22:47.956Z,98.70
2022-12-18T19:25:29.958Z,99.10
2022-12-18T19:28:08.265Z,99.00
2022-12-18T19:30:48.975Z,98.70
2022-12-18T19:33:41.594Z,98.80
2022-12-18T19:36:14.085Z,98.10
2022-12-18T19:38:43.050Z,98.10
2022-12-18T19:41:13.976Z,97.70
2022-12-18T19:43:42.987Z,97.50
2022-12-18T19:46:13.139Z,98.00
2022-12-18T19:48:41.881Z,98.50
2022-12-18T19:51:15.582Z,99.30
2022-12-18T19:53:43.591Z,99.90
2022-12-18T19:56:13.355Z,99.90
2022-12-18T19:58:42.748Z,99.90
2022-12-18T20:01:10.853Z,98.90
2022-12-18T20:03:41.485Z,98.30
2022-12-18T20:06:13.070Z,98.40
2022-12-18T20:08:41.318Z,98.30
2022-12-18T20:11:09.608Z,97.90
2022-12-18T20:13:37.632Z,97.50
2022-12-18T20:16:06.161Z,96.80
2022-12-18T20:18:34.002Z,96.80
2022-12-18T20:21:02.133Z,96.50
2022-12-18T20:23:33.208Z,96.80
2022-12-18T20:26:02.682Z,97.00
2022-12-18T20:28:32.452Z,96.90
2022-12-18T20:31:01.246Z,96.80
2022-12-18T20:33:29.682Z,96.90
2022-12-18T20:36:03.276Z,96.70
2022-12-18T20:38:33.619Z,97.30
2022-12-18T20:41:03.418Z,97.60
2022-12-18T20:43:31.247Z,97.50
2022-12-18T20:46:03.230Z,96.80
2022-12-18T20:48:31.726Z,96.70
2022-12-18T20:51:00.276Z,96.80
2022-12-18T20:53:33.257Z,97.20
2022-12-18T20:56:02.164Z,97.20
2022-12-18T20:58:30.107Z,97.50
2022-12-18T21:01:05.669Z,97.10
2022-12-18T21:03:33.684Z,96.70
2022-12-18T21:06:01.573Z,96.80
2022-12-18T21:08:29.400Z,96.20
2022-12-18T21:11:32.321Z,96.10
2022-12-18T21:14:01.207Z,96.00
2022-12-18T21:16:29.225Z,95.80
2022-12-18T21:18:57.060Z,95.80
2022-12-18T21:21:26.850Z,96.00
2022-12-18T21:23:55.078Z,95.80
2022-12-18T21:26:26.105Z,95.90
2022-12-18T21:28:55.973Z,96.10
2022-12-18T21:31:24.381Z,96.30
2022-12-18T21:33:52.656Z,96.30
2022-12-18T21:36:24.531Z,95.80
2022-12-18T21:38:53.757Z,95.30
2022-12-18T21:41:42.359Z,95.10
2022-12-18T21:44:14.266Z,94.80
2022-12-18T21:46:44.365Z,95.10
2022-12-18T21:49:14.370Z,95.20
2022-12-18T21:51:42.500Z,95.70
2022-12-18T21:54:10.359Z,96.20
2022-12-18T21:56:47.450Z,96.50
2022-12-18T21:59:16.745Z,96.90
2022-12-18T22:01:44.905Z,96.70
2022-12-18T22:04:13.594Z,96.80
2022-12-18T22:06:42.593Z,96.80
2022-12-18T22:09:11.720Z,96.20
2022-12-18T22:11:39.584Z,96.20
2022-12-18T22:14:09.118Z,96.20
2022-12-18T22:16:36.996Z,96.20
2022-12-18T22:19:06.681Z,96.30
2022-12-18T22:21:36.160Z,96.60
2022-12-18T22:24:06.458Z,96.40
2022-12-18T22:26:39.771Z,97.10
2022-12-18T22:29:29.676Z,97.00
2022-12-18T22:31:59.377Z,96.80
2022-12-18T22:34:27.332Z,96.60
2022-12-18T22:36:55.480Z,96.10
2022-12-18T22:39:25.484Z,96.20
2022-12-18T22:41:53.964Z,96.30
2022-12-18T22:44:26.600Z,96.60
2022-12-18T22:47:06.265Z,97.10
2022-12-18T22:49:35.673Z,97.10
2022-12-18T22:52:04.467Z,97.10
2022-12-18T22:54:32.350Z,97.40
2022-12-18T22:57:00.236Z,96.90
2022-12-18T22:59:29.381Z,96.60
2022-12-18T23:01:59.041Z,96.40
2022-12-18T23:04:30.170Z,96.40
2022-12-18T23:07:04.551Z,96.50
2022-12-18T23:09:32.503Z,96.30
2022-12-18T23:12:00.366Z,96.60
2022-12-18T23:14:29.731Z,96.60
2022-12-18T23:16:57.616Z,96.70
2022-12-18T23:19:25.995Z,96.50
2022-12-18T23:21:54.531Z,96.70
2022-12-18T23:24:24.629Z,96.90
2022-12-18T23:26:52.556Z,96.70
2022-12-18T23:29:20.519Z,96.50
2022-12-18T23:31:49.726Z,96.70
2022-12-18T23:34:17.960Z,96.30
2022-12-18T23:36:46.964Z,96.30
2022-12-18T23:39:29.111Z,96.60
2022-12-18T23:42:00.502Z,96.50
2022-12-18T23:44:28.932Z,96.30
2022-12-18T23:46:58.233Z,96.20
2022-12-18T23:49:26.172Z,96.60
2022-12-18T23:51:55.098Z,96.90
2022-12-18T23:54:30.880Z,96.90
2022-12-18T23:57:01.515Z,97.50
2022-12-18T23:59:29.399Z,97.50
